Ute Park, New Mexico
Current Conditions -  °F | °C
As of 7:15 PM on Friday 24 Oct 2014 (Local Time) from KAXX Reporting Station
Clear Clear  
Wind Chill: 53°   Ceiling: Unl
Heat Index: 53°   Visibility: 10mi
Dew Point: 21°   Wind: 5mph
Humidity: 28%   Direction: 270°W
Pressure: 30.44"   Gusts: NA
Location:  36.56°N, 105.12°W
Report Text: KAXX 250115Z AUTO 27004KT 10SM CLR 12/M06 A3044 RMK AO2 T01191060
Loading
Personal Weather Stations






























Interactive Weather Map
Tropical Storm Tracking
New forecast layout! Learn more

10-Day Weather Forecast

Advertisements
Track Severe Weather on mobile